Time;durP1;ratioP1;P1;durP2;ratioP2;P2;SDS_P1;SDS_P2;PMS_P1;PMS_P2;Temp;Humidity;BMP_temperature;BMP_pressure;BME280_temperature;BME280_humidity;BME280_pressure;Samples;Min_cycle;Max_cycle;Signal;HPM_P1;HPM_P2
2022/09/27 00:00:42;;;;;;;;;;;18.40;56.30;;;;;;4993256;28;20346;-73
2022/09/27 00:03:08;;;;;;;;;;;18.40;56.30;;;;;;4992339;28;19910;-73
2022/09/27 00:05:34;;;;;;;;;;;18.40;56.30;;;;;;4992439;28;20334;-73
2022/09/27 00:07:59;;;;;;;;;;;18.40;56.30;;;;;;4996815;28;19921;-74
2022/09/27 00:10:25;;;;;;;;;;;18.40;56.30;;;;;;5013768;28;19948;-73
2022/09/27 00:12:51;;;;;;;;;;;18.40;56.30;;;;;;5013411;28;19939;-73
2022/09/27 00:15:16;;;;;;;;;;;18.40;56.40;;;;;;5028441;28;20282;-73
2022/09/27 00:17:42;;;;;;;;;;;18.40;56.30;;;;;;5012821;28;19920;-73
2022/09/27 00:20:07;;;;;;;;;;;18.40;56.30;;;;;;5013219;28;19916;-73
2022/09/27 00:22:32;;;;;;;;;;;18.40;56.30;;;;;;5011617;28;19917;-73
2022/09/27 00:24:58;;;;;;;;;;;18.40;56.30;;;;;;5013171;28;19909;-73
2022/09/27 00:27:24;;;;;;;;;;;18.40;56.30;;;;;;5011663;28;19957;-72
2022/09/27 00:29:49;;;;;;;;;;;18.40;56.30;;;;;;5012947;28;19920;-73
2022/09/27 00:32:15;;;;;;;;;;;18.40;56.30;;;;;;5011625;28;20465;-74
2022/09/27 00:34:40;;;;;;;;;;;18.30;56.30;;;;;;5013248;28;20402;-74
2022/09/27 00:37:06;;;;;;;;;;;18.40;56.40;;;;;;5011595;28;19914;-72
2022/09/27 00:39:31;;;;;;;;;;;18.40;56.30;;;;;;5012950;28;19933;-73
2022/09/27 00:41:57;;;;;;;;;;;18.30;56.30;;;;;;5012961;28;19910;-72
2022/09/27 00:44:26;;;;;;;;;;;18.30;56.40;;;;;;5004927;28;19914;-73
2022/09/27 00:47:11;;;;;;;;;;;18.30;57.00;;;;;;5010960;28;19921;-73
2022/09/27 00:49:37;;;;;;;;;;;18.30;56.40;;;;;;5012893;28;20301;-72
2022/09/27 00:52:04;;;;;;;;;;;18.30;56.50;;;;;;5012307;28;19910;-73
2022/09/27 00:54:29;;;;;;;;;;;18.30;56.50;;;;;;5015595;28;19914;-73
2022/09/27 00:56:55;;;;;;;;;;;18.30;56.50;;;;;;5016335;28;19918;-72
2022/09/27 00:59:47;;;;;;;;;;;18.30;56.50;;;;;;5016573;28;19917;-73
2022/09/27 01:02:12;;;;;;;;;;;18.30;56.50;;;;;;5012750;28;19909;-72
2022/09/27 01:04:38;;;;;;;;;;;18.30;56.50;;;;;;5014924;28;19925;-73
2022/09/27 01:07:03;;;;;;;;;;;18.30;56.40;;;;;;5014937;28;19909;-73
2022/09/27 01:09:29;;;;;;;;;;;18.30;56.50;;;;;;5015132;28;19949;-73
2022/09/27 01:12:09;;;;;;;;;;;18.20;56.40;;;;;;5015065;28;19910;-72
2022/09/27 01:14:38;;;;;;;;;;;18.20;56.40;;;;;;5016039;28;19929;-73
2022/09/27 01:17:22;;;;;;;;;;;18.30;56.50;;;;;;5015564;28;19920;-73
2022/09/27 01:19:53;;;;;;;;;;;18.30;56.50;;;;;;5015852;28;19916;-74
2022/09/27 01:22:29;;;;;;;;;;;18.20;56.40;;;;;;5015998;28;19951;-72
2022/09/27 01:25:02;;;;;;;;;;;18.20;56.70;;;;;;5015885;28;19944;-73
2022/09/27 01:27:51;;;;;;;;;;;18.20;56.60;;;;;;5014579;28;20378;-73
2022/09/27 01:30:22;;;;;;;;;;;18.20;56.60;;;;;;4987918;28;19910;-74
2022/09/27 01:32:53;;;;;;;;;;;18.20;56.70;;;;;;4997802;28;19909;-73
2022/09/27 01:35:22;;;;;;;;;;;18.10;56.70;;;;;;5014667;28;20377;-73
2022/09/27 01:38:06;;;;;;;;;;;18.10;56.70;;;;;;5015665;28;19963;-72
2022/09/27 01:40:50;;;;;;;;;;;18.10;56.80;;;;;;5030989;28;20353;-73
2022/09/27 01:43:23;;;;;;;;;;;18.10;56.80;;;;;;5031105;28;19916;-73
2022/09/27 01:45:50;;;;;;;;;;;18.10;56.80;;;;;;5030473;28;20396;-73
2022/09/27 01:48:17;;;;;;;;;;;18.10;56.80;;;;;;5015753;28;19959;-73
2022/09/27 01:51:03;;;;;;;;;;;18.10;56.80;;;;;;5030847;28;19909;-73
2022/09/27 01:53:35;;;;;;;;;;;18.10;56.80;;;;;;5015490;28;20538;-73
2022/09/27 01:56:05;;;;;;;;;;;18.10;56.80;;;;;;5030728;28;19932;-74
2022/09/27 01:58:36;;;;;;;;;;;18.10;56.80;;;;;;5030480;28;19935;-72
2022/09/27 02:01:02;;;;;;;;;;;18.10;56.80;;;;;;5030446;28;20913;-73
2022/09/27 02:03:32;;;;;;;;;;;18.10;56.80;;;;;;5030792;28;19909;-73
2022/09/27 02:05:59;;;;;;;;;;;18.10;56.80;;;;;;5030369;28;19921;-73
2022/09/27 02:08:27;;;;;;;;;;;18.10;56.80;;;;;;5010847;28;19936;-74
2022/09/27 02:10:53;;;;;;;;;;;18.10;56.70;;;;;;4997603;28;19953;-73
2022/09/27 02:13:20;;;;;;;;;;;18.10;56.70;;;;;;5015285;28;19921;-72
2022/09/27 02:15:52;;;;;;;;;;;18.10;57.30;;;;;;5013571;28;19909;-73
2022/09/27 02:18:18;;;;;;;;;;;18.10;56.70;;;;;;5013670;28;20315;-72
2022/09/27 02:20:44;;;;;;;;;;;18.10;56.70;;;;;;5013556;28;19952;-73
2022/09/27 02:23:10;;;;;;;;;;;18.10;56.70;;;;;;5013838;28;19956;-72
2022/09/27 02:25:55;;;;;;;;;;;18.10;56.70;;;;;;5014859;28;20308;-73
2022/09/27 02:28:23;;;;;;;;;;;18.10;56.70;;;;;;5013672;28;19990;-73
2022/09/27 02:30:48;;;;;;;;;;;18.20;56.70;;;;;;5013103;28;19909;-73
2022/09/27 02:33:14;;;;;;;;;;;18.10;56.60;;;;;;5014774;28;20297;-73
2022/09/27 02:35:39;;;;;;;;;;;18.20;56.60;;;;;;5013303;28;19913;-73
2022/09/27 02:38:05;;;;;;;;;;;18.10;56.60;;;;;;5014384;28;19957;-73
2022/09/27 02:40:31;;;;;;;;;;;18.20;56.70;;;;;;5030141;28;19917;-73
2022/09/27 02:42:57;;;;;;;;;;;18.20;56.60;;;;;;5029733;28;20003;-73
2022/09/27 02:45:23;;;;;;;;;;;18.20;56.70;;;;;;5029817;28;19913;-73
2022/09/27 02:48:08;;;;;;;;;;;18.10;57.30;;;;;;5012502;28;19913;-73
2022/09/27 02:50:34;;;;;;;;;;;18.20;56.80;;;;;;5014148;28;19960;-73
2022/09/27 02:53:00;;;;;;;;;;;18.20;56.60;;;;;;5014466;28;19984;-73
2022/09/27 02:55:26;;;;;;;;;;;18.20;56.50;;;;;;5014329;28;19910;-73
2022/09/27 02:57:57;;;;;;;;;;;18.20;56.40;;;;;;5014136;28;19960;-73
2022/09/27 03:00:44;;;;;;;;;;;18.20;56.40;;;;;;5014735;28;20376;-72
2022/09/27 03:03:19;;;;;;;;;;;18.20;56.50;;;;;;5012945;28;19920;-73
2022/09/27 03:05:49;;;;;;;;;;;18.20;56.50;;;;;;5013732;28;19999;-73
2022/09/27 03:08:15;;;;;;;;;;;18.20;56.60;;;;;;5012906;28;20292;-72
2022/09/27 03:10:40;;;;;;;;;;;18.20;56.60;;;;;;5012970;28;19910;-72
2022/09/27 03:13:06;;;;;;;;;;;18.20;56.50;;;;;;5012792;28;19910;-73
2022/09/27 03:15:31;;;;;;;;;;;18.20;56.50;;;;;;4996010;28;19960;-73
2022/09/27 03:17:57;;;;;;;;;;;18.20;56.50;;;;;;5013610;28;19920;-72
2022/09/27 03:20:22;;;;;;;;;;;18.20;56.50;;;;;;5012610;28;19910;-73
2022/09/27 03:22:48;;;;;;;;;;;18.10;56.50;;;;;;5013660;28;19949;-73
2022/09/27 03:25:13;;;;;;;;;;;18.10;56.60;;;;;;5013789;28;19939;-73
2022/09/27 03:27:39;;;;;;;;;;;18.10;56.70;;;;;;5013810;28;19920;-74
2022/09/27 03:30:05;;;;;;;;;;;18.10;56.80;;;;;;4996155;28;20278;-73
2022/09/27 03:32:31;;;;;;;;;;;18.10;56.80;;;;;;5013280;28;20439;-73
2022/09/27 03:34:56;;;;;;;;;;;18.10;56.90;;;;;;5012369;28;19910;-73
2022/09/27 03:37:21;;;;;;;;;;;18.10;56.80;;;;;;5012243;28;19953;-74
2022/09/27 03:39:47;;;;;;;;;;;18.10;56.90;;;;;;5012283;28;19916;-72
2022/09/27 03:42:12;;;;;;;;;;;18.10;56.80;;;;;;5013364;28;20299;-73
2022/09/27 03:44:38;;;;;;;;;;;18.10;56.80;;;;;;5012456;28;20480;-73
2022/09/27 03:47:03;;;;;;;;;;;18.10;56.80;;;;;;4995087;28;19984;-73
2022/09/27 03:49:29;;;;;;;;;;;18.10;56.80;;;;;;5013029;28;19921;-72
2022/09/27 03:51:54;;;;;;;;;;;18.10;56.90;;;;;;5013165;28;19910;-73
2022/09/27 03:54:20;;;;;;;;;;;18.10;56.90;;;;;;5013440;28;20328;-73
2022/09/27 03:56:45;;;;;;;;;;;18.10;56.80;;;;;;5012040;28;19921;-73
2022/09/27 03:59:10;;;;;;;;;;;18.10;56.80;;;;;;5013518;28;19914;-73
2022/09/27 04:01:37;;;;;;;;;;;18.10;56.80;;;;;;5012725;28;19945;-74
2022/09/27 04:04:03;;;;;;;;;;;18.10;56.90;;;;;;5012973;28;19917;-74
2022/09/27 04:06:29;;;;;;;;;;;18.10;56.90;;;;;;5012905;28;19914;-73
2022/09/27 04:08:54;;;;;;;;;;;18.10;56.80;;;;;;5013123;28;20380;-73
2022/09/27 04:11:22;;;;;;;;;;;18.10;56.80;;;;;;5013080;28;19918;-73
2022/09/27 04:13:48;;;;;;;;;;;18.10;56.80;;;;;;5013036;28;19922;-72
2022/09/27 04:16:14;;;;;;;;;;;18.10;56.90;;;;;;5027588;28;19936;-73
2022/09/27 04:18:40;;;;;;;;;;;18.10;56.90;;;;;;5013109;28;19917;-73
2022/09/27 04:21:05;;;;;;;;;;;18.00;56.80;;;;;;5028177;28;20052;-73
2022/09/27 04:23:31;;;;;;;;;;;18.00;56.90;;;;;;5028205;28;19916;-73
2022/09/27 04:25:56;;;;;;;;;;;18.00;57.50;;;;;;5011515;28;19913;-73
2022/09/27 04:28:22;;;;;;;;;;;18.10;56.90;;;;;;5016029;28;19917;-72
2022/09/27 04:30:47;;;;;;;;;;;18.10;56.70;;;;;;5016625;28;19914;-73
2022/09/27 04:33:13;;;;;;;;;;;18.10;56.70;;;;;;5015842;28;19917;-73
2022/09/27 04:38:23;;;;;;;;;;;18.10;56.70;;;;;;5016777;28;19941;-72
2022/09/27 04:40:49;;;;;;;;;;;18.10;56.70;;;;;;5016487;28;19917;-73
2022/09/27 04:43:15;;;;;;;;;;;18.10;56.80;;;;;;4999063;28;20024;-73
2022/09/27 04:45:41;;;;;;;;;;;18.10;57.30;;;;;;5015989;28;19917;-73
2022/09/27 04:48:07;;;;;;;;;;;18.10;56.70;;;;;;5015495;28;19909;-73
2022/09/27 04:50:32;;;;;;;;;;;18.10;56.70;;;;;;5016758;28;19963;-73
2022/09/27 04:52:58;;;;;;;;;;;18.10;56.70;;;;;;5016551;28;19997;-73
2022/09/27 04:55:23;;;;;;;;;;;18.10;56.60;;;;;;5015505;28;19956;-73
2022/09/27 04:57:49;;;;;;;;;;;18.10;56.70;;;;;;5015966;28;20437;-73
2022/09/27 05:00:14;;;;;;;;;;;18.10;56.60;;;;;;5014738;28;19937;-73
2022/09/27 05:02:41;;;;;;;;;;;18.10;56.50;;;;;;5014415;28;19920;-73
2022/09/27 05:05:07;;;;;;;;;;;18.10;56.40;;;;;;5014682;28;20356;-73
2022/09/27 05:07:32;;;;;;;;;;;18.10;56.50;;;;;;5016024;28;20036;-73
2022/09/27 05:09:58;;;;;;;;;;;18.20;56.50;;;;;;5015789;28;19909;-72
2022/09/27 05:12:25;;;;;;;;;;;18.20;56.50;;;;;;5015801;28;19957;-73
2022/09/27 05:14:51;;;;;;;;;;;18.10;56.50;;;;;;5015690;28;19996;-71
2022/09/27 05:17:17;;;;;;;;;;;18.10;56.50;;;;;;5030389;28;19967;-73
2022/09/27 05:19:43;;;;;;;;;;;18.10;56.50;;;;;;5015695;28;19909;-73
2022/09/27 05:22:08;;;;;;;;;;;18.10;56.60;;;;;;5014365;28;19979;-73
2022/09/27 05:24:34;;;;;;;;;;;18.10;56.50;;;;;;5015615;28;19917;-72
2022/09/27 05:27:00;;;;;;;;;;;18.10;56.50;;;;;;5030710;28;20012;-73
2022/09/27 05:29:25;;;;;;;;;;;18.10;56.50;;;;;;5023250;28;20325;-73
2022/09/27 05:31:50;;;;;;;;;;;18.10;56.60;;;;;;5013738;28;20357;-72
2022/09/27 05:34:19;;;;;;;;;;;18.10;56.70;;;;;;5015542;28;20024;-73
2022/09/27 05:36:47;;;;;;;;;;;18.10;56.50;;;;;;4997748;28;20338;-72
2022/09/27 05:39:15;;;;;;;;;;;18.10;56.60;;;;;;4997665;28;19910;-73
2022/09/27 05:41:41;;;;;;;;;;;18.10;56.70;;;;;;5015516;28;19914;-73
2022/09/27 05:44:06;;;;;;;;;;;18.10;56.60;;;;;;5015317;28;19910;-73
2022/09/27 05:46:32;;;;;;;;;;;18.10;56.50;;;;;;5015020;28;19909;-73
2022/09/27 05:48:57;;;;;;;;;;;18.10;56.50;;;;;;5015219;28;19909;-72
2022/09/27 05:51:22;;;;;;;;;;;18.10;56.60;;;;;;5015154;28;20008;-73
2022/09/27 05:53:48;;;;;;;;;;;18.10;56.50;;;;;;5015188;28;19914;-74
2022/09/27 05:56:13;;;;;;;;;;;18.10;56.60;;;;;;5015059;28;20363;-73
2022/09/27 05:58:39;;;;;;;;;;;18.10;56.60;;;;;;4997689;28;19984;-73
2022/09/27 06:01:07;;;;;;;;;;;18.10;56.70;;;;;;5014569;28;19976;-74
2022/09/27 06:03:33;;;;;;;;;;;18.00;56.60;;;;;;4997642;28;19910;-74
2022/09/27 06:06:00;;;;;;;;;;;18.00;56.70;;;;;;5014833;28;20351;-73
2022/09/27 06:08:26;;;;;;;;;;;18.00;56.70;;;;;;5015049;28;19913;-74
2022/09/27 06:10:59;;;;;;;;;;;18.00;56.70;;;;;;5014640;28;19909;-73
2022/09/27 06:13:24;;;;;;;;;;;18.00;56.70;;;;;;4997503;28;20388;-74
2022/09/27 06:15:51;;;;;;;;;;;18.10;56.70;;;;;;5014143;28;20008;-74
2022/09/27 06:18:16;;;;;;;;;;;18.10;56.60;;;;;;4997018;28;19963;-74
2022/09/27 06:20:42;;;;;;;;;;;18.10;56.50;;;;;;5013477;28;19949;-74
2022/09/27 06:23:11;;;;;;;;;;;18.10;56.60;;;;;;5014510;28;19910;-74
2022/09/27 06:25:37;;;;;;;;;;;18.10;56.70;;;;;;5013127;28;19909;-74
2022/09/27 06:28:03;;;;;;;;;;;18.00;56.70;;;;;;4996846;28;19959;-74
2022/09/27 06:30:28;;;;;;;;;;;18.00;56.80;;;;;;5013558;28;19909;-74
2022/09/27 06:32:54;;;;;;;;;;;18.00;56.80;;;;;;5012740;28;20391;-73
2022/09/27 06:35:21;;;;;;;;;;;18.00;56.90;;;;;;5014406;28;20143;-74
2022/09/27 06:37:46;;;;;;;;;;;18.00;56.80;;;;;;5014079;28;20004;-73
2022/09/27 06:40:13;;;;;;;;;;;18.10;56.70;;;;;;5029486;28;20003;-73
2022/09/27 06:42:39;;;;;;;;;;;18.10;56.70;;;;;;5014125;28;19910;-73
2022/09/27 06:45:05;;;;;;;;;;;18.10;56.60;;;;;;5012912;28;20373;-73
2022/09/27 06:47:34;;;;;;;;;;;18.10;56.50;;;;;;5013661;28;19914;-73
2022/09/27 06:50:00;;;;;;;;;;;18.10;56.50;;;;;;5028593;28;20012;-74
2022/09/27 06:52:26;;;;;;;;;;;18.10;56.50;;;;;;5029188;28;19909;-73
2022/09/27 06:54:51;;;;;;;;;;;18.10;56.50;;;;;;5029345;28;20281;-74
2022/09/27 07:00:22;;;;;;;;;;;18.10;56.60;;;;;;5029072;28;20412;-74
2022/09/27 07:02:46;;;;;;;;;;;18.00;56.70;;;;;;5013671;28;20372;-72
2022/09/27 07:05:12;;;;;;;;;;;18.00;56.70;;;;;;5013682;28;19921;-73
2022/09/27 07:07:38;;;;;;;;;;;18.00;56.70;;;;;;5027768;28;20357;-73
2022/09/27 07:10:04;;;;;;;;;;;18.00;56.70;;;;;;5014012;28;20358;-74
2022/09/27 07:12:29;;;;;;;;;;;18.10;56.80;;;;;;4995945;28;19910;-74
2022/09/27 07:14:55;;;;;;;;;;;18.00;56.80;;;;;;4996097;28;20013;-74
2022/09/27 07:17:21;;;;;;;;;;;18.00;56.80;;;;;;4995471;28;19936;-73
2022/09/27 07:19:47;;;;;;;;;;;18.00;56.90;;;;;;5013690;28;19940;-73
2022/09/27 07:22:12;;;;;;;;;;;18.00;56.70;;;;;;5013569;28;19932;-74
2022/09/27 07:24:38;;;;;;;;;;;18.10;56.80;;;;;;4996068;28;20335;-74
2022/09/27 07:27:03;;;;;;;;;;;18.10;56.80;;;;;;4996022;28;20266;-74
2022/09/27 07:29:29;;;;;;;;;;;18.00;56.70;;;;;;4995975;28;19913;-73
2022/09/27 07:31:54;;;;;;;;;;;18.10;56.80;;;;;;5012909;28;19917;-73
2022/09/27 07:34:20;;;;;;;;;;;18.00;56.70;;;;;;5013635;28;19913;-71
2022/09/27 07:36:45;;;;;;;;;;;18.10;56.80;;;;;;4995572;28;20333;-73
2022/09/27 07:39:11;;;;;;;;;;;18.10;56.80;;;;;;4979687;28;19910;-73
2022/09/27 07:41:39;;;;;;;;;;;18.10;56.80;;;;;;5013157;28;19914;-73
2022/09/27 07:44:05;;;;;;;;;;;18.00;56.70;;;;;;4996068;28;20344;-73
2022/09/27 07:46:30;;;;;;;;;;;18.00;56.70;;;;;;5012721;28;20377;-73
2022/09/27 07:48:56;;;;;;;;;;;18.00;56.70;;;;;;5013231;28;19910;-74
2022/09/27 07:51:22;;;;;;;;;;;18.00;56.70;;;;;;4996005;28;19917;-74
2022/09/27 07:53:47;;;;;;;;;;;18.00;56.70;;;;;;4995715;28;19920;-73
2022/09/27 07:56:12;;;;;;;;;;;18.00;56.80;;;;;;5013066;28;19909;-73
2022/09/27 07:58:39;;;;;;;;;;;18.00;56.90;;;;;;5012835;28;20386;-74
2022/09/27 08:01:04;;;;;;;;;;;18.00;57.00;;;;;;5011296;28;19914;-74
2022/09/27 08:03:30;;;;;;;;;;;18.00;56.80;;;;;;5011608;28;19937;-73
2022/09/27 08:05:56;;;;;;;;;;;18.00;56.90;;;;;;5012818;28;20413;-73
2022/09/27 08:08:21;;;;;;;;;;;18.00;56.90;;;;;;5011897;28;19914;-73
2022/09/27 08:10:46;;;;;;;;;;;18.00;57.00;;;;;;5012978;28;19917;-73
2022/09/27 08:13:13;;;;;;;;;;;18.00;56.90;;;;;;5012988;28;19910;-74
2022/09/27 08:15:38;;;;;;;;;;;18.00;56.90;;;;;;5011275;28;19940;-74
2022/09/27 08:18:04;;;;;;;;;;;18.00;56.80;;;;;;5011675;28;19953;-73
2022/09/27 08:20:30;;;;;;;;;;;18.00;56.80;;;;;;4995199;28;19913;-73
2022/09/27 08:22:55;;;;;;;;;;;18.00;56.80;;;;;;5011595;28;19909;-72
2022/09/27 08:25:23;;;;;;;;;;;18.00;56.80;;;;;;5011568;28;19910;-73
2022/09/27 08:27:58;;;;;;;;;;;18.00;56.90;;;;;;5012910;28;19921;-74
2022/09/27 08:30:23;;;;;;;;;;;18.00;57.00;;;;;;5011639;28;19910;-73
2022/09/27 08:32:49;;;;;;;;;;;18.00;57.00;;;;;;5012547;28;19920;-75
2022/09/27 08:35:14;;;;;;;;;;;18.00;56.90;;;;;;5011400;28;19916;-74
2022/09/27 08:37:40;;;;;;;;;;;18.00;56.90;;;;;;5012399;28;19923;-74
2022/09/27 08:40:06;;;;;;;;;;;18.00;56.80;;;;;;5011593;28;19916;-74
2022/09/27 08:42:35;;;;;;;;;;;18.00;56.90;;;;;;5011217;28;19918;-74
2022/09/27 08:45:04;;;;;;;;;;;18.00;56.90;;;;;;5012879;28;20369;-73
2022/09/27 08:47:34;;;;;;;;;;;18.00;57.00;;;;;;5012303;28;19914;-73
2022/09/27 08:50:05;;;;;;;;;;;18.00;57.00;;;;;;5012571;28;19914;-74
2022/09/27 08:52:35;;;;;;;;;;;18.00;57.00;;;;;;5012402;28;19914;-74
2022/09/27 08:55:02;;;;;;;;;;;18.00;57.00;;;;;;5011250;28;20293;-74
2022/09/27 08:57:28;;;;;;;;;;;18.00;57.00;;;;;;5010819;28;19913;-73
2022/09/27 09:00:13;;;;;;;;;;;18.00;57.00;;;;;;5012620;28;19913;-73
2022/09/27 09:02:39;;;;;;;;;;;18.00;57.00;;;;;;5011382;28;20294;-73
2022/09/27 09:05:06;;;;;;;;;;;18.00;57.00;;;;;;5011392;28;20008;-73
2022/09/27 09:07:46;;;;;;;;;;;18.00;56.90;;;;;;5010995;28;19914;-73
2022/09/27 09:12:45;;;;;;;;;;;18.00;57.00;;;;;;5011215;28;19909;-73
2022/09/27 09:13:05;;;;;;;;;;;17.90;57.10;;;;;;5012069;28;19909;-73
2022/09/27 09:15:53;;;;;;;;;;;17.90;57.10;;;;;;5014364;28;19964;-73
2022/09/27 09:18:37;;;;;;;;;;;17.90;57.10;;;;;;5022515;28;19914;-73
2022/09/27 09:21:06;;;;;;;;;;;17.90;57.20;;;;;;5015644;28;19914;-72
2022/09/27 09:23:48;;;;;;;;;;;17.90;57.10;;;;;;5014610;28;19910;-73
2022/09/27 09:26:23;;;;;;;;;;;17.90;57.10;;;;;;5014794;28;19921;-73
2022/09/27 09:29:07;;;;;;;;;;;17.90;57.10;;;;;;5015596;28;19909;-73
2022/09/27 09:31:48;;;;;;;;;;;17.90;57.10;;;;;;5013883;28;20312;-73
2022/09/27 09:34:18;;;;;;;;;;;17.90;57.20;;;;;;5015598;28;19910;-73
2022/09/27 09:36:45;;;;;;;;;;;17.90;57.20;;;;;;5013910;28;19910;-73
2022/09/27 09:39:31;;;;;;;;;;;17.90;57.20;;;;;;5014649;28;19932;-73
2022/09/27 09:42:06;;;;;;;;;;;17.90;57.20;;;;;;5007578;28;19910;-73
2022/09/27 09:44:33;;;;;;;;;;;17.90;57.20;;;;;;5015362;28;19909;-73
2022/09/27 09:46:59;;;;;;;;;;;17.90;57.20;;;;;;5014132;28;20445;-73
2022/09/27 09:49:28;;;;;;;;;;;17.90;57.20;;;;;;5014087;28;19935;-73
2022/09/27 09:51:58;;;;;;;;;;;17.90;57.10;;;;;;5015044;28;19967;-73
2022/09/27 09:54:30;;;;;;;;;;;17.90;57.10;;;;;;4997608;28;19996;-72
2022/09/27 09:56:58;;;;;;;;;;;17.90;57.10;;;;;;5013818;28;20393;-73
2022/09/27 09:59:24;;;;;;;;;;;17.90;57.10;;;;;;5013882;28;19920;-73
2022/09/27 10:01:50;;;;;;;;;;;18.00;57.00;;;;;;5014494;28;19909;-73
2022/09/27 10:04:21;;;;;;;;;;;18.00;57.00;;;;;;5014901;28;19910;-72
2022/09/27 10:06:46;;;;;;;;;;;18.00;57.10;;;;;;5014982;28;19921;-72
2022/09/27 10:09:13;;;;;;;;;;;18.00;57.10;;;;;;5013403;28;19913;-73
2022/09/27 10:11:39;;;;;;;;;;;18.00;57.20;;;;;;5013884;28;19916;-73
2022/09/27 10:14:08;;;;;;;;;;;17.90;57.20;;;;;;5014745;28;19910;-74
2022/09/27 10:16:35;;;;;;;;;;;17.90;57.20;;;;;;5012872;28;20392;-73
2022/09/27 10:19:00;;;;;;;;;;;17.90;57.20;;;;;;5014882;28;19917;-73
2022/09/27 10:21:29;;;;;;;;;;;17.90;57.20;;;;;;5014637;28;20388;-73
2022/09/27 10:24:14;;;;;;;;;;;18.00;57.20;;;;;;5012927;28;19993;-73
2022/09/27 10:26:41;;;;;;;;;;;18.00;57.20;;;;;;5012993;28;20418;-73
2022/09/27 10:29:20;;;;;;;;;;;18.00;57.20;;;;;;5013343;28;19992;-73
2022/09/27 10:31:47;;;;;;;;;;;17.90;57.10;;;;;;5012881;28;19910;-73
2022/09/27 10:34:21;;;;;;;;;;;18.00;57.30;;;;;;4997006;28;19914;-73
2022/09/27 10:36:50;;;;;;;;;;;17.90;57.20;;;;;;5012913;28;19916;-73
2022/09/27 10:39:22;;;;;;;;;;;17.90;57.20;;;;;;5012933;28;19909;-73
2022/09/27 10:41:48;;;;;;;;;;;17.90;57.20;;;;;;5014239;28;19918;-72
2022/09/27 10:44:19;;;;;;;;;;;17.90;57.20;;;;;;4996704;28;20356;-74
2022/09/27 10:46:54;;;;;;;;;;;17.90;57.20;;;;;;5013648;28;20075;-73
2022/09/27 10:49:20;;;;;;;;;;;17.90;57.20;;;;;;4996629;28;20080;-73
2022/09/27 10:51:48;;;;;;;;;;;17.90;57.20;;;;;;5014013;28;20001;-73
2022/09/27 10:54:17;;;;;;;;;;;17.90;57.30;;;;;;5014100;28;19910;-73
2022/09/27 10:56:43;;;;;;;;;;;17.90;57.40;;;;;;5012652;28;19913;-73
2022/09/27 10:59:12;;;;;;;;;;;17.90;57.40;;;;;;5014567;28;20000;-73
2022/09/27 11:01:41;;;;;;;;;;;17.90;57.30;;;;;;4996378;28;19917;-74
2022/09/27 11:04:14;;;;;;;;;;;18.00;57.30;;;;;;5012548;28;19921;-74
2022/09/27 11:06:39;;;;;;;;;;;18.00;57.30;;;;;;5012572;28;19916;-72
2022/09/27 11:09:09;;;;;;;;;;;18.00;57.30;;;;;;5013493;28;20285;-73
2022/09/27 11:11:35;;;;;;;;;;;18.00;57.40;;;;;;5012599;28;19936;-73
2022/09/27 11:14:03;;;;;;;;;;;18.00;57.40;;;;;;5012762;28;19914;-73
2022/09/27 11:16:40;;;;;;;;;;;17.90;57.40;;;;;;4992272;28;19909;-72
2022/09/27 11:19:06;;;;;;;;;;;17.90;57.30;;;;;;4993024;28;19921;-73
2022/09/27 11:21:46;;;;;;;;;;;17.90;57.40;;;;;;4994048;28;19913;-73
2022/09/27 11:24:16;;;;;;;;;;;17.90;57.40;;;;;;4992874;28;19917;-73
2022/09/27 11:27:00;;;;;;;;;;;17.90;57.40;;;;;;4992801;28;19914;-73
2022/09/27 11:29:33;;;;;;;;;;;18.00;57.40;;;;;;4994011;28;19910;-73
2022/09/27 11:32:08;;;;;;;;;;;18.00;57.30;;;;;;4993889;28;19910;-72
2022/09/27 11:34:53;;;;;;;;;;;18.00;57.30;;;;;;4993939;28;19910;-73
2022/09/27 11:37:38;;;;;;;;;;;18.00;57.30;;;;;;4993348;28;20008;-73
2022/09/27 11:40:09;;;;;;;;;;;18.00;57.40;;;;;;5012177;28;20432;-72
2022/09/27 11:42:35;;;;;;;;;;;18.00;57.40;;;;;;5013301;28;19910;-73
2022/09/27 11:45:03;;;;;;;;;;;18.00;57.40;;;;;;5013425;28;19932;-73
2022/09/27 11:47:29;;;;;;;;;;;17.90;57.40;;;;;;5013040;28;19913;-74
2022/09/27 11:50:02;;;;;;;;;;;17.90;57.50;;;;;;5013079;28;19909;-74
2022/09/27 11:52:46;;;;;;;;;;;17.90;57.50;;;;;;4995427;28;19909;-74
2022/09/27 11:55:18;;;;;;;;;;;17.90;57.50;;;;;;5012170;28;19909;-73
2022/09/27 11:57:45;;;;;;;;;;;18.00;57.50;;;;;;5013173;28;19957;-73
2022/09/27 12:00:18;;;;;;;;;;;18.00;57.50;;;;;;4979444;28;19988;-73
2022/09/27 12:02:53;;;;;;;;;;;18.00;57.40;;;;;;4995053;28;20262;-72
2022/09/27 12:05:30;;;;;;;;;;;18.00;57.40;;;;;;5012854;28;20396;-73
2022/09/27 12:08:04;;;;;;;;;;;18.00;57.50;;;;;;4995514;28;20439;-73
2022/09/27 12:10:30;;;;;;;;;;;18.00;57.50;;;;;;5028254;28;19910;-73
2022/09/27 12:12:55;;;;;;;;;;;18.00;57.50;;;;;;5013063;28;20285;-73
2022/09/27 12:15:25;;;;;;;;;;;18.00;57.50;;;;;;5028296;28;19913;-74
2022/09/27 12:17:51;;;;;;;;;;;18.00;57.50;;;;;;5027817;28;19917;-74
2022/09/27 12:20:23;;;;;;;;;;;18.00;57.50;;;;;;5012790;28;20003;-72
2022/09/27 12:22:53;;;;;;;;;;;18.00;57.60;;;;;;5012960;28;19916;-73
2022/09/27 12:25:19;;;;;;;;;;;17.90;57.60;;;;;;5028214;28;20366;-73
2022/09/27 12:27:45;;;;;;;;;;;17.90;57.60;;;;;;5027974;28;19914;-73
2022/09/27 12:30:11;;;;;;;;;;;17.90;57.60;;;;;;5028246;28;19913;-73
2022/09/27 12:32:40;;;;;;;;;;;17.90;57.60;;;;;;5027595;28;20381;-74
2022/09/27 12:35:14;;;;;;;;;;;17.90;57.50;;;;;;5027805;28;19953;-72
2022/09/27 12:37:45;;;;;;;;;;;17.90;57.60;;;;;;5027656;28;20270;-73
2022/09/27 12:40:18;;;;;;;;;;;17.90;57.60;;;;;;5027924;28;19911;-72
2022/09/27 12:42:44;;;;;;;;;;;18.00;57.70;;;;;;5027989;28;19910;-73
2022/09/27 12:45:16;;;;;;;;;;;18.00;57.70;;;;;;5011465;28;20004;-73
2022/09/27 12:47:49;;;;;;;;;;;18.00;57.70;;;;;;5012425;28;19910;-73
2022/09/27 12:50:18;;;;;;;;;;;18.00;57.70;;;;;;5031846;28;19913;-73
2022/09/27 12:52:46;;;;;;;;;;;18.00;57.70;;;;;;5016258;28;19917;-72
2022/09/27 12:55:15;;;;;;;;;;;18.00;57.70;;;;;;5016207;28;19920;-73
2022/09/27 12:57:59;;;;;;;;;;;18.00;57.80;;;;;;5016030;28;20428;-73
2022/09/27 13:00:33;;;;;;;;;;;17.90;57.70;;;;;;5016329;28;20004;-73
2022/09/27 13:03:09;;;;;;;;;;;17.90;57.70;;;;;;5014841;28;20419;-72
2022/09/27 13:05:40;;;;;;;;;;;17.90;57.70;;;;;;5011425;28;19965;-73
2022/09/27 13:08:17;;;;;;;;;;;17.90;57.70;;;;;;5018104;28;19910;-73
2022/09/27 13:10:52;;;;;;;;;;;18.00;57.80;;;;;;4996304;28;19910;-73
2022/09/27 13:13:19;;;;;;;;;;;18.00;57.80;;;;;;5011555;28;20004;-73
2022/09/27 13:15:45;;;;;;;;;;;18.00;57.80;;;;;;5010933;28;19910;-73
2022/09/27 13:18:30;;;;;;;;;;;18.00;57.90;;;;;;5011429;28;20117;-74
2022/09/27 13:20:56;;;;;;;;;;;18.00;57.80;;;;;;4996462;28;19910;-72
2022/09/27 13:23:22;;;;;;;;;;;18.00;57.80;;;;;;5011598;28;19997;-74
2022/09/27 13:25:55;;;;;;;;;;;17.90;58.40;;;;;;4996596;28;19937;-74
2022/09/27 13:28:35;;;;;;;;;;;17.90;57.80;;;;;;4996201;28;19910;-72
2022/09/27 13:31:01;;;;;;;;;;;18.00;57.80;;;;;;5010934;28;19910;-73
2022/09/27 13:33:45;;;;;;;;;;;18.00;57.80;;;;;;5011432;28;19921;-73
2022/09/27 13:36:19;;;;;;;;;;;18.00;57.80;;;;;;5011027;28;19914;-73
2022/09/27 13:38:53;;;;;;;;;;;18.00;57.70;;;;;;4994302;28;19929;-73
2022/09/27 13:41:19;;;;;;;;;;;18.00;57.80;;;;;;5011082;28;20492;-73
2022/09/27 13:43:52;;;;;;;;;;;18.00;57.80;;;;;;5010904;28;19918;-73
2022/09/27 13:46:19;;;;;;;;;;;17.90;57.80;;;;;;4995240;28;19909;-73
2022/09/27 13:48:49;;;;;;;;;;;18.00;57.80;;;;;;5010701;28;20289;-72
2022/09/27 13:51:33;;;;;;;;;;;18.00;57.80;;;;;;4994492;28;19920;-73
2022/09/27 13:54:03;;;;;;;;;;;18.00;57.80;;;;;;4996017;28;20300;-73
2022/09/27 13:56:35;;;;;;;;;;;18.00;57.70;;;;;;5010917;28;19917;-73
2022/09/27 13:59:00;;;;;;;;;;;18.00;57.80;;;;;;4995229;28;19997;-73
2022/09/27 14:01:27;;;;;;;;;;;18.00;57.80;;;;;;5010258;28;20452;-73
2022/09/27 14:04:00;;;;;;;;;;;18.00;57.80;;;;;;5010756;28;19987;-74
2022/09/27 14:06:28;;;;;;;;;;;18.00;57.80;;;;;;4991142;28;19929;-73
2022/09/27 14:08:55;;;;;;;;;;;18.00;57.80;;;;;;4976111;28;20004;-73
2022/09/27 14:11:23;;;;;;;;;;;18.00;57.70;;;;;;4974967;28;20378;-73
2022/09/27 14:13:49;;;;;;;;;;;18.00;57.70;;;;;;4974925;28;20691;-72
2022/09/27 14:16:15;;;;;;;;;;;18.00;57.70;;;;;;4975676;28;19914;-73
2022/09/27 14:18:43;;;;;;;;;;;18.00;57.80;;;;;;4976039;28;19918;-73
2022/09/27 14:21:27;;;;;;;;;;;18.00;57.80;;;;;;4975020;28;19911;-73
2022/09/27 14:23:53;;;;;;;;;;;18.00;57.80;;;;;;4975984;28;19912;-73
2022/09/27 14:26:20;;;;;;;;;;;18.00;57.80;;;;;;4974742;28;19929;-72
2022/09/27 14:28:45;;;;;;;;;;;18.00;57.80;;;;;;4974881;28;19910;-73
2022/09/27 14:31:12;;;;;;;;;;;18.00;57.70;;;;;;4974229;28;19914;-73